Time;durP1;ratioP1;P1;durP2;ratioP2;P2;SDS_P1;SDS_P2;PMS_P1;PMS_P2;Temp;Humidity;BMP_temperature;BMP_pressure;BME280_temperature;BME280_humidity;BME280_pressure;Samples;Min_cycle;Max_cycle;Signal;HPM_P1;HPM_P2
2023/03/17 00:01:50;;;;;;;8.55;3.60;;;10.60;96.70;;;;;;5083039;28;20653;-71
2023/03/17 00:04:18;;;;;;;5.47;3.42;;;10.50;96.70;;;;;;5064456;28;20044;-71
2023/03/17 00:06:47;;;;;;;7.10;3.38;;;10.50;96.70;;;;;;5079006;28;20573;-71
2023/03/17 00:09:17;;;;;;;8.38;3.40;;;10.50;96.70;;;;;;5056070;28;20083;-72
2023/03/17 00:11:46;;;;;;;6.10;3.20;;;10.50;96.70;;;;;;5063174;28;20036;-71
2023/03/17 00:14:15;;;;;;;4.00;2.83;;;10.50;96.70;;;;;;5081287;28;20036;-72
2023/03/17 00:16:48;;;;;;;4.72;2.60;;;10.30;96.70;;;;;;5062953;28;20094;-71
2023/03/17 00:19:20;;;;;;;5.25;2.63;;;10.30;96.70;;;;;;5065104;28;20059;-71
2023/03/17 00:21:49;;;;;;;4.68;2.45;;;10.40;96.70;;;;;;5046635;28;20127;-72
2023/03/17 00:24:17;;;;;;;3.15;2.13;;;10.40;96.70;;;;;;5055126;28;20140;-72
2023/03/17 00:26:45;;;;;;;5.40;2.80;;;10.30;96.70;;;;;;5060118;28;20054;-71
2023/03/17 00:29:15;;;;;;;4.18;2.60;;;10.30;96.70;;;;;;5057827;28;20048;-72
2023/03/17 00:31:45;;;;;;;5.03;2.78;;;10.30;96.70;;;;;;5056424;28;20060;-71
2023/03/17 00:34:17;;;;;;;4.65;3.03;;;10.30;96.70;;;;;;5061843;28;20048;-71
2023/03/17 00:36:48;;;;;;;6.85;2.95;;;10.30;96.70;;;;;;5055455;28;20079;-71
2023/03/17 00:39:17;;;;;;;7.03;4.00;;;10.20;96.70;;;;;;5053895;28;20135;-71
2023/03/17 00:41:46;;;;;;;10.63;4.65;;;10.10;96.70;;;;;;5065045;28;20059;-71
2023/03/17 00:44:17;;;;;;;10.95;4.18;;;10.20;96.70;;;;;;5059562;28;20056;-71
2023/03/17 00:46:47;;;;;;;7.00;3.63;;;10.10;96.70;;;;;;5054113;28;20100;-71
2023/03/17 00:49:18;;;;;;;8.82;3.42;;;10.20;96.70;;;;;;5062323;28;20044;-72
2023/03/17 00:51:47;;;;;;;6.20;3.38;;;10.10;96.70;;;;;;5061705;28;20040;-71
2023/03/17 00:54:15;;;;;;;7.43;3.17;;;9.90;96.70;;;;;;5063815;28;20028;-71
2023/03/17 00:56:44;;;;;;;8.32;3.88;;;9.80;96.70;;;;;;5063237;28;20071;-71
2023/03/17 00:59:20;;;;;;;8.80;4.25;;;9.70;96.70;;;;;;5056269;28;20045;-71
2023/03/17 01:01:50;;;;;;;8.20;3.67;;;9.80;96.70;;;;;;5057191;28;20166;-72
2023/03/17 01:04:21;;;;;;;6.40;4.00;;;9.70;96.70;;;;;;5057176;28;20479;-71
2023/03/17 01:06:51;;;;;;;7.75;4.22;;;9.70;96.70;;;;;;5054179;28;20519;-71
2023/03/17 01:09:23;;;;;;;13.30;4.55;;;9.60;96.70;;;;;;5044791;28;20067;-71
2023/03/17 01:11:51;;;;;;;8.63;4.45;;;9.30;96.70;;;;;;5054797;28;20055;-71
2023/03/17 01:14:19;;;;;;;7.65;4.15;;;9.40;96.70;;;;;;5066636;28;20119;-71
2023/03/17 01:16:47;;;;;;;9.90;3.92;;;9.50;96.70;;;;;;5063490;28;20055;-71
2023/03/17 01:19:16;;;;;;;4.13;2.67;;;9.50;96.70;;;;;;5058963;28;20553;-71
2023/03/17 01:21:45;;;;;;;6.25;3.40;;;9.50;96.70;;;;;;5061189;28;20036;-72
2023/03/17 01:24:13;;;;;;;6.35;3.35;;;9.50;96.70;;;;;;5061785;28;20053;-72
2023/03/17 01:26:41;;;;;;;5.10;2.72;;;9.60;96.70;;;;;;5054660;28;20041;-72
2023/03/17 01:29:10;;;;;;;4.60;2.80;;;9.70;96.70;;;;;;5057655;28;20040;-71
2023/03/17 01:31:38;;;;;;;5.05;2.83;;;9.80;96.70;;;;;;5062911;28;20072;-71
2023/03/17 01:34:06;;;;;;;3.97;2.80;;;9.80;96.70;;;;;;5057955;28;20559;-73
2023/03/17 01:36:36;;;;;;;5.85;3.10;;;9.80;96.70;;;;;;5053532;28;20041;-72
2023/03/17 01:39:04;;;;;;;4.32;2.60;;;9.80;96.70;;;;;;5037350;28;20041;-72
2023/03/17 01:41:33;;;;;;;5.05;2.63;;;9.70;96.70;;;;;;5067644;28;20489;-71
2023/03/17 01:44:01;;;;;;;3.85;2.28;;;9.60;96.70;;;;;;5049205;28;20146;-71
2023/03/17 01:46:31;;;;;;;4.45;2.30;;;9.50;96.70;;;;;;5047925;28;20059;-71
2023/03/17 01:49:11;;;;;;;3.33;1.65;;;9.60;96.70;;;;;;5053864;28;20048;-71
2023/03/17 01:52:02;;;;;;;3.05;1.63;;;9.60;96.70;;;;;;5064915;28;20056;-71
2023/03/17 01:54:34;;;;;;;4.13;1.65;;;9.60;96.70;;;;;;5060217;28;20036;-71
2023/03/17 01:57:09;;;;;;;5.45;1.92;;;9.50;96.70;;;;;;5067137;28;20064;-72
2023/03/17 01:59:42;;;;;;;3.15;1.88;;;9.30;96.70;;;;;;5058590;28;20145;-71
2023/03/17 02:02:15;;;;;;;2.92;1.88;;;9.30;96.70;;;;;;5044303;28;20044;-72
2023/03/17 02:04:43;;;;;;;3.08;1.67;;;9.20;96.70;;;;;;5055506;28;20037;-71
2023/03/17 02:07:13;;;;;;;4.47;1.75;;;9.30;96.70;;;;;;5057087;28;20036;-71
2023/03/17 02:09:41;;;;;;;4.07;1.35;;;9.20;96.70;;;;;;5061296;28;20549;-71
2023/03/17 02:12:10;;;;;;;2.65;1.75;;;9.20;96.70;;;;;;5061993;28;20037;-71
2023/03/17 02:14:39;;;;;;;3.75;1.65;;;9.30;96.70;;;;;;5060134;28;20505;-72
2023/03/17 02:17:07;;;;;;;3.58;1.63;;;9.10;96.70;;;;;;5056304;28;20036;-72
2023/03/17 02:19:36;;;;;;;3.28;1.23;;;9.20;96.70;;;;;;5061586;28;20162;-71
2023/03/17 02:22:07;;;;;;;2.92;1.40;;;9.30;96.70;;;;;;5056303;28;20155;-72
2023/03/17 02:24:38;;;;;;;3.50;1.38;;;9.30;96.70;;;;;;5044806;28;20052;-71
2023/03/17 02:27:11;;;;;;;5.78;1.80;;;9.20;96.70;;;;;;5059801;28;20786;-72
2023/03/17 02:29:40;;;;;;;3.85;1.42;;;9.20;96.70;;;;;;5062695;28;20059;-71
2023/03/17 02:32:09;;;;;;;4.13;1.33;;;9.20;96.70;;;;;;5055858;28;20486;-71
2023/03/17 02:34:37;;;;;;;3.45;1.55;;;9.10;96.70;;;;;;5060040;28;20048;-72
2023/03/17 02:37:07;;;;;;;3.15;1.30;;;9.20;96.70;;;;;;5062984;28;20032;-72
2023/03/17 02:39:36;;;;;;;3.53;1.65;;;9.10;96.70;;;;;;5043147;28;20122;-71
2023/03/17 02:42:05;;;;;;;3.38;1.42;;;9.00;96.70;;;;;;5061419;28;20401;-71
2023/03/17 02:44:34;;;;;;;3.65;1.05;;;8.90;96.70;;;;;;5058156;28;20050;-71
2023/03/17 02:47:02;;;;;;;3.70;1.42;;;8.90;96.70;;;;;;5061671;28;20139;-72
2023/03/17 02:49:32;;;;;;;2.90;1.42;;;9.00;96.70;;;;;;5058473;28;20040;-71
2023/03/17 02:52:00;;;;;;;4.47;2.00;;;8.80;96.70;;;;;;5063728;28;20052;-71
2023/03/17 02:54:30;;;;;;;8.65;2.70;;;8.70;96.70;;;;;;5060774;28;20048;-71
2023/03/17 02:56:59;;;;;;;3.20;1.58;;;8.50;96.70;;;;;;5060319;28;20048;-72
2023/03/17 02:59:27;;;;;;;5.68;2.05;;;8.50;96.70;;;;;;5066500;28;20048;-71
2023/03/17 03:01:57;;;;;;;4.53;1.80;;;8.40;96.70;;;;;;5042945;28;20072;-71
2023/03/17 03:04:27;;;;;;;5.53;1.50;;;8.30;96.70;;;;;;5057358;28;20048;-71
2023/03/17 03:06:56;;;;;;;3.67;1.77;;;8.30;96.70;;;;;;5058970;28;20057;-72
2023/03/17 03:09:24;;;;;;;3.33;1.60;;;8.30;96.70;;;;;;5057558;28;20048;-71
2023/03/17 03:11:54;;;;;;;4.22;1.73;;;8.30;96.70;;;;;;5040307;28;20106;-71
2023/03/17 03:14:22;;;;;;;4.78;2.25;;;8.50;96.70;;;;;;5058651;28;20038;-71
2023/03/17 03:16:51;;;;;;;4.78;1.65;;;8.60;96.70;;;;;;5059619;28;20152;-71
2023/03/17 03:19:19;;;;;;;3.05;1.65;;;8.50;96.70;;;;;;5056330;28;20138;-71
2023/03/17 03:21:48;;;;;;;3.58;1.70;;;8.50;96.70;;;;;;5052606;28;20049;-72
2023/03/17 03:24:16;;;;;;;2.65;1.50;;;8.60;96.70;;;;;;5077220;28;20102;-72
2023/03/17 03:26:44;;;;;;;3.10;1.67;;;8.60;96.70;;;;;;5079941;28;20040;-71
2023/03/17 03:29:13;;;;;;;4.10;1.70;;;8.70;96.70;;;;;;5072470;28;20040;-71
2023/03/17 03:31:41;;;;;;;2.58;1.75;;;8.70;96.70;;;;;;5073862;28;20157;-71
2023/03/17 03:34:09;;;;;;;3.75;1.75;;;8.60;96.70;;;;;;5080521;28;20066;-71
2023/03/17 03:36:38;;;;;;;4.03;1.95;;;8.40;96.70;;;;;;5080846;28;20094;-70
2023/03/17 03:39:07;;;;;;;6.72;2.13;;;8.20;96.70;;;;;;5069662;28;20062;-70
2023/03/17 03:41:35;;;;;;;3.97;2.10;;;8.00;96.70;;;;;;5069383;28;20398;-69
2023/03/17 03:44:03;;;;;;;3.50;2.03;;;8.00;96.70;;;;;;5087369;28;20413;-70
2023/03/17 03:46:33;;;;;;;4.75;1.88;;;8.00;96.70;;;;;;5072574;28;20469;-70
2023/03/17 03:49:01;;;;;;;4.85;2.00;;;7.90;96.70;;;;;;5081040;28;20036;-70
2023/03/17 03:51:29;;;;;;;2.90;1.50;;;7.80;96.70;;;;;;5056588;28;20045;-70
2023/03/17 03:53:57;;;;;;;3.30;1.50;;;7.90;96.70;;;;;;5080888;28;20040;-71
2023/03/17 03:56:25;;;;;;;2.08;1.25;;;7.80;96.70;;;;;;5075030;28;20052;-70
2023/03/17 03:58:54;;;;;;;1.95;1.05;;;7.70;96.70;;;;;;5072777;28;20577;-70
2023/03/17 04:01:23;;;;;;;1.55;1.00;;;7.70;96.70;;;;;;5084948;28;20044;-71
2023/03/17 04:03:52;;;;;;;2.60;1.45;;;7.70;96.70;;;;;;5072978;28;20047;-70
2023/03/17 04:06:20;;;;;;;3.55;1.20;;;7.70;96.70;;;;;;5081021;28;20101;-70
2023/03/17 04:08:48;;;;;;;2.85;1.20;;;7.60;96.70;;;;;;5083286;28;20059;-70
2023/03/17 04:11:16;;;;;;;2.55;1.30;;;7.80;96.70;;;;;;5084148;28;20070;-70
2023/03/17 04:13:45;;;;;;;2.63;1.17;;;8.00;96.70;;;;;;5073793;28;20042;-70
2023/03/17 04:16:13;;;;;;;4.20;1.40;;;8.10;96.70;;;;;;5065874;28;20040;-71
2023/03/17 04:18:41;;;;;;;4.20;1.25;;;8.00;96.70;;;;;;5086247;28;20123;-70
2023/03/17 04:21:12;;;;;;;3.38;1.42;;;7.90;96.70;;;;;;5084406;28;20464;-70
2023/03/17 04:23:40;;;;;;;3.53;1.25;;;7.90;96.70;;;;;;5086150;28;20087;-70
2023/03/17 04:26:09;;;;;;;2.67;1.42;;;7.90;96.70;;;;;;5070871;28;20474;-70
2023/03/17 04:28:37;;;;;;;2.65;1.13;;;7.90;96.70;;;;;;5068526;28;20048;-70
2023/03/17 04:31:06;;;;;;;2.55;1.02;;;7.90;96.70;;;;;;5083421;28;20943;-70
2023/03/17 04:33:34;;;;;;;2.78;1.30;;;7.90;96.70;;;;;;5077264;28;20101;-70
2023/03/17 04:36:02;;;;;;;2.45;1.17;;;7.90;96.70;;;;;;5084225;28;20040;-70
2023/03/17 04:38:32;;;;;;;4.07;1.60;;;8.00;96.70;;;;;;5072534;28;20147;-70
2023/03/17 04:41:01;;;;;;;3.05;1.20;;;8.00;96.70;;;;;;5052002;28;20039;-70
2023/03/17 04:43:29;;;;;;;2.75;1.33;;;7.90;96.70;;;;;;5074554;28;20749;-70
2023/03/17 04:45:57;;;;;;;2.47;1.30;;;7.90;96.70;;;;;;5083820;28;20036;-70
2023/03/17 04:48:26;;;;;;;2.13;1.30;;;7.90;96.70;;;;;;5083194;28;20040;-70
2023/03/17 04:50:54;;;;;;;2.90;1.10;;;8.00;96.70;;;;;;5084384;28;20036;-70
2023/03/17 04:53:22;;;;;;;2.60;1.02;;;7.90;96.70;;;;;;5070365;28;20036;-70
2023/03/17 04:55:52;;;;;;;2.65;1.00;;;7.80;96.70;;;;;;5066214;28;20059;-70
2023/03/17 04:58:20;;;;;;;2.72;0.90;;;7.90;96.70;;;;;;5086744;28;20454;-70
2023/03/17 05:00:58;;;;;;;2.70;1.10;;;7.80;96.70;;;;;;5063482;28;20043;-70
2023/03/17 05:03:26;;;;;;;2.38;1.27;;;7.80;96.70;;;;;;5073643;28;20043;-70
2023/03/17 05:05:56;;;;;;;1.80;1.00;;;7.80;96.70;;;;;;5085470;28;20086;-71
2023/03/17 05:08:26;;;;;;;2.65;1.35;;;7.80;96.70;;;;;;5082895;28;20043;-71
2023/03/17 05:10:57;;;;;;;2.83;1.25;;;7.90;96.70;;;;;;5086154;28;20036;-71
2023/03/17 05:13:26;;;;;;;2.42;1.27;;;7.90;96.70;;;;;;5084897;28;20047;-70
2023/03/17 05:15:55;;;;;;;1.70;1.00;;;7.90;96.70;;;;;;5071575;28;20035;-70
2023/03/17 05:18:25;;;;;;;1.67;0.90;;;7.80;96.70;;;;;;5051163;28;20105;-71
2023/03/17 05:20:53;;;;;;;1.83;1.20;;;7.80;96.70;;;;;;5082353;28;20035;-70
2023/03/17 05:23:22;;;;;;;2.67;1.25;;;7.80;96.70;;;;;;5079651;28;20086;-71
2023/03/17 05:25:51;;;;;;;2.00;0.90;;;7.90;96.70;;;;;;5068921;28;20075;-71
2023/03/17 05:28:21;;;;;;;2.40;1.20;;;7.70;96.70;;;;;;5060958;28;20155;-71
2023/03/17 05:30:50;;;;;;;1.52;1.05;;;7.80;96.70;;;;;;5082001;28;20498;-71
2023/03/17 05:33:20;;;;;;;1.77;1.00;;;7.80;96.70;;;;;;5083128;28;20047;-70
2023/03/17 05:35:48;;;;;;;4.45;1.50;;;7.80;96.70;;;;;;5070314;28;20040;-71
2023/03/17 05:38:17;;;;;;;4.20;1.42;;;7.70;96.70;;;;;;5068118;28;20048;-70
2023/03/17 05:40:47;;;;;;;2.15;1.30;;;7.40;96.70;;;;;;5081311;28;20047;-71
2023/03/17 05:43:16;;;;;;;6.28;2.05;;;7.60;96.70;;;;;;5068326;28;20051;-70
2023/03/17 05:45:46;;;;;;;5.03;2.38;;;7.60;96.70;;;;;;5065561;28;20040;-71
2023/03/17 05:48:15;;;;;;;4.75;2.55;;;7.40;96.70;;;;;;5085545;28;20588;-70
2023/03/17 05:50:44;;;;;;;6.35;2.67;;;7.60;96.70;;;;;;5061757;28;20078;-71
2023/03/17 05:53:12;;;;;;;3.80;2.42;;;7.50;96.70;;;;;;5062811;28;20525;-71
2023/03/17 05:55:41;;;;;;;5.20;2.22;;;7.60;96.70;;;;;;5075878;28;20042;-71
2023/03/17 05:58:09;;;;;;;5.97;2.75;;;7.60;96.70;;;;;;5082130;28;20138;-71
2023/03/17 06:00:38;;;;;;;6.72;2.42;;;7.60;96.70;;;;;;5081254;28;20043;-71
2023/03/17 06:03:08;;;;;;;2.92;1.70;;;7.70;96.70;;;;;;5078548;28;20148;-71
2023/03/17 06:05:36;;;;;;;6.95;2.10;;;7.60;96.70;;;;;;5084106;28;20043;-70
2023/03/17 06:08:05;;;;;;;6.35;2.10;;;7.60;96.70;;;;;;5071007;28;20539;-70
2023/03/17 06:10:33;;;;;;;4.65;2.30;;;7.60;96.70;;;;;;5067160;28;20040;-70
2023/03/17 06:13:03;;;;;;;4.88;1.50;;;7.70;96.70;;;;;;5067075;28;20052;-70
2023/03/17 06:15:32;;;;;;;3.83;1.50;;;7.70;96.70;;;;;;5081385;28;20054;-70
2023/03/17 06:18:01;;;;;;;3.80;2.10;;;7.60;96.70;;;;;;5080964;28;20500;-70
2023/03/17 06:20:31;;;;;;;3.72;1.98;;;7.60;96.70;;;;;;5073903;28;20044;-71
2023/03/17 06:23:00;;;;;;;4.40;2.47;;;7.70;96.70;;;;;;5078463;28;20117;-70
2023/03/17 06:25:32;;;;;;;2.75;1.85;;;7.60;96.70;;;;;;5065781;28;20052;-71
2023/03/17 06:28:02;;;;;;;5.30;2.08;;;7.60;96.70;;;;;;5081591;28;20046;-70
2023/03/17 06:30:31;;;;;;;6.15;2.25;;;7.70;96.70;;;;;;5057462;28;20040;-69
2023/03/17 06:33:00;;;;;;;4.57;2.70;;;7.50;96.70;;;;;;5059376;28;20044;-70
2023/03/17 06:35:31;;;;;;;6.25;2.70;;;7.60;96.70;;;;;;5082646;28;20135;-71
2023/03/17 06:38:01;;;;;;;5.78;3.45;;;7.70;96.70;;;;;;5074000;28;20066;-71
2023/03/17 06:40:29;;;;;;;4.75;3.03;;;7.70;96.70;;;;;;5086142;28;20051;-70
2023/03/17 06:42:57;;;;;;;3.60;2.50;;;7.70;96.70;;;;;;5081185;28;20123;-70
2023/03/17 06:45:26;;;;;;;5.10;3.05;;;7.80;96.70;;;;;;5086452;28;20529;-71
2023/03/17 06:47:55;;;;;;;3.78;2.20;;;7.70;96.70;;;;;;5079904;28;20044;-71
2023/03/17 06:50:23;;;;;;;3.42;2.10;;;7.80;96.70;;;;;;5062609;28;20788;-71
2023/03/17 06:52:53;;;;;;;3.72;2.15;;;7.80;96.70;;;;;;5065889;28;20044;-70
2023/03/17 06:55:21;;;;;;;4.15;2.20;;;7.80;96.70;;;;;;5076345;28;20052;-71
2023/03/17 06:57:49;;;;;;;3.97;1.70;;;7.80;96.70;;;;;;5080833;28;20082;-71
2023/03/17 07:00:19;;;;;;;3.33;1.80;;;7.90;96.70;;;;;;5059644;28;20040;-70
2023/03/17 07:02:48;;;;;;;5.25;2.40;;;8.00;96.70;;;;;;5067543;28;20508;-71
2023/03/17 07:05:17;;;;;;;3.47;1.60;;;7.90;96.70;;;;;;5070512;28;20456;-71
2023/03/17 07:07:45;;;;;;;4.03;1.52;;;8.10;96.70;;;;;;5084762;28;20474;-71
2023/03/17 07:10:16;;;;;;;8.70;2.05;;;8.10;96.70;;;;;;5085195;28;20517;-70
2023/03/17 07:12:44;;;;;;;2.80;1.73;;;8.10;96.70;;;;;;5080040;28;20047;-70
2023/03/17 07:15:13;;;;;;;3.38;1.52;;;8.10;96.70;;;;;;5067281;28;20047;-71
2023/03/17 07:17:42;;;;;;;5.07;1.73;;;8.10;96.70;;;;;;5017466;28;20100;-70
2023/03/17 07:20:12;;;;;;;4.22;2.10;;;8.00;96.70;;;;;;5006493;28;20049;-70
2023/03/17 07:22:41;;;;;;;4.32;1.85;;;8.10;96.70;;;;;;4999053;28;20111;-70
2023/03/17 07:25:09;;;;;;;4.32;2.10;;;8.10;96.70;;;;;;4980988;28;20069;-70
2023/03/17 07:27:39;;;;;;;4.10;1.75;;;8.10;96.70;;;;;;5024148;28;20492;-71
2023/03/17 07:30:13;;;;;;;4.75;2.00;;;8.10;96.70;;;;;;5021681;28;20057;-70
2023/03/17 07:32:42;;;;;;;5.00;2.17;;;8.10;96.70;;;;;;5005492;28;20045;-70
2023/03/17 07:35:10;;;;;;;4.70;2.13;;;8.20;96.70;;;;;;5026609;28;20081;-71
2023/03/17 07:37:39;;;;;;;4.68;2.20;;;8.20;96.70;;;;;;5013917;28;20049;-71
2023/03/17 07:40:09;;;;;;;5.80;2.00;;;8.10;96.70;;;;;;5031238;28;20041;-71
2023/03/17 07:42:38;;;;;;;4.68;2.30;;;8.30;96.70;;;;;;5020163;28;20053;-71
2023/03/17 07:45:07;;;;;;;4.43;2.30;;;8.40;96.70;;;;;;5008887;28;20538;-71
2023/03/17 07:47:35;;;;;;;7.55;2.38;;;8.50;96.70;;;;;;5001967;28;20513;-72
2023/03/17 07:50:04;;;;;;;5.45;2.47;;;8.50;96.70;;;;;;5027761;28;20044;-72
2023/03/17 07:52:33;;;;;;;4.63;2.38;;;8.40;96.70;;;;;;5002481;28;20112;-72
2023/03/17 07:55:01;;;;;;;5.97;2.63;;;8.50;96.70;;;;;;5034813;28;20143;-74
2023/03/17 07:57:29;;;;;;;4.82;2.83;;;8.70;96.70;;;;;;5095147;28;20043;-71
2023/03/17 08:00:00;;;;;;;5.45;2.42;;;8.80;96.70;;;;;;5085194;28;20043;-70
2023/03/17 08:02:38;;;;;;;4.30;2.47;;;9.00;96.70;;;;;;5057041;28;20052;-71
2023/03/17 08:05:08;;;;;;;4.78;2.38;;;9.10;96.70;;;;;;5089516;28;20532;-70
2023/03/17 08:07:37;;;;;;;3.60;2.22;;;9.20;96.70;;;;;;5062173;28;20130;-72
2023/03/17 08:10:07;;;;;;;5.60;2.67;;;9.30;96.70;;;;;;5048800;28;20144;-74
2023/03/17 08:12:35;;;;;;;6.53;2.72;;;9.30;96.70;;;;;;5077343;28;20462;-71
2023/03/17 08:15:06;;;;;;;8.70;3.13;;;9.40;96.70;;;;;;5060812;28;20040;-72
2023/03/17 08:17:36;;;;;;;5.00;2.63;;;9.50;96.70;;;;;;5081550;28;20513;-73
2023/03/17 08:20:05;;;;;;;6.60;3.17;;;9.60;96.70;;;;;;5068083;28;20469;-71
2023/03/17 08:22:33;;;;;;;10.73;3.58;;;9.70;96.70;;;;;;5096807;28;20048;-72
2023/03/17 08:25:01;;;;;;;8.23;3.40;;;9.80;96.70;;;;;;5064183;28;20044;-72
2023/03/17 08:27:30;;;;;;;11.32;3.92;;;9.80;96.70;;;;;;5076050;28;20056;-72
2023/03/17 08:30:01;;;;;;;8.90;3.22;;;9.90;96.70;;;;;;5058052;28;20047;-72
2023/03/17 08:32:31;;;;;;;8.65;3.30;;;10.00;96.70;;;;;;5036999;28;20036;-72
2023/03/17 08:35:00;;;;;;;7.07;2.90;;;10.10;96.70;;;;;;5075274;28;20048;-72
2023/03/17 08:37:28;;;;;;;4.75;2.97;;;10.20;96.70;;;;;;5064329;28;20632;-74
2023/03/17 08:39:56;;;;;;;5.63;2.47;;;10.30;96.70;;;;;;5072290;28;20048;-73
2023/03/17 08:42:25;;;;;;;3.38;2.15;;;10.40;96.70;;;;;;5065093;28;20048;-73
2023/03/17 08:44:54;;;;;;;5.32;2.28;;;10.50;96.70;;;;;;5063652;28;20055;-74
2023/03/17 08:47:23;;;;;;;4.72;2.70;;;10.70;96.70;;;;;;5062307;28;20048;-72
2023/03/17 08:49:55;;;;;;;4.60;2.33;;;10.80;96.70;;;;;;5079421;28;20043;-73
2023/03/17 08:52:23;;;;;;;3.72;2.20;;;10.90;96.70;;;;;;5055542;28;20135;-72
2023/03/17 08:54:52;;;;;;;3.38;2.22;;;11.00;96.70;;;;;;5064389;28;20048;-74
2023/03/17 08:57:21;;;;;;;3.83;2.30;;;11.10;96.70;;;;;;5070629;28;20040;-73
2023/03/17 08:59:51;;;;;;;3.85;2.30;;;11.20;96.70;;;;;;5066039;28;20048;-73
2023/03/17 09:02:20;;;;;;;3.30;2.20;;;11.20;96.70;;;;;;5071728;28;20039;-73
2023/03/17 09:04:48;;;;;;;3.83;2.10;;;11.30;96.70;;;;;;5075135;28;20037;-74
2023/03/17 09:07:19;;;;;;;4.82;2.55;;;11.40;96.70;;;;;;5071175;28;20058;-74
2023/03/17 09:09:47;;;;;;;4.35;2.17;;;11.60;96.70;;;;;;5061726;28;20502;-72
2023/03/17 09:12:16;;;;;;;6.25;2.50;;;11.60;96.70;;;;;;5061577;28;20158;-72
2023/03/17 09:14:44;;;;;;;5.57;2.03;;;11.70;96.70;;;;;;5057453;28;20048;-73
2023/03/17 09:17:16;;;;;;;3.13;1.95;;;11.80;96.70;;;;;;5061689;28;20076;-71
2023/03/17 09:19:44;;;;;;;4.68;2.42;;;12.00;96.70;;;;;;5048066;28;20399;-72
2023/03/17 09:22:15;;;;;;;4.60;2.40;;;12.00;96.70;;;;;;5059270;28;20039;-73
2023/03/17 09:24:45;;;;;;;5.70;3.03;;;12.00;96.70;;;;;;5062206;28;20056;-73
2023/03/17 09:27:15;;;;;;;6.22;2.53;;;12.00;96.70;;;;;;5067971;28;20132;-73
2023/03/17 09:29:43;;;;;;;7.47;2.90;;;12.10;96.70;;;;;;5063222;28;20049;-72
2023/03/17 09:32:12;;;;;;;3.22;2.30;;;12.20;96.70;;;;;;5066461;28;20126;-73
2023/03/17 09:34:41;;;;;;;4.90;3.05;;;12.40;96.70;;;;;;5069776;28;20044;-73
2023/03/17 09:37:13;;;;;;;7.32;3.03;;;12.40;96.70;;;;;;5060562;28;20128;-74
2023/03/17 09:39:44;;;;;;;4.88;2.97;;;12.50;96.70;;;;;;5058413;28;20098;-74
2023/03/17 09:42:33;;;;;;;4.10;2.50;;;12.60;96.70;;;;;;5053501;28;20044;-73
2023/03/17 09:45:13;;;;;;;5.00;2.63;;;12.70;96.70;;;;;;5060879;28;20067;-73
2023/03/17 09:48:08;;;;;;;4.03;2.63;;;12.90;96.70;;;;;;5069729;28;20051;-73
2023/03/17 09:50:44;;;;;;;3.75;1.95;;;12.90;96.70;;;;;;5069232;28;20129;-74
2023/03/17 09:53:19;;;;;;;2.70;1.50;;;13.20;96.70;;;;;;5061009;28;20136;-73
2023/03/17 09:55:54;;;;;;;3.15;1.77;;;13.20;96.70;;;;;;5058288;28;20422;-74
2023/03/17 09:58:33;;;;;;;4.63;2.40;;;13.20;96.70;;;;;;5075439;28;20044;-73
2023/03/17 10:01:04;;;;;;;3.97;2.15;;;13.40;96.70;;;;;;5053566;28;20206;-74
2023/03/17 10:03:36;;;;;;;2.92;1.90;;;13.70;96.70;;;;;;5060423;28;20048;-74
2023/03/17 10:06:17;;;;;;;3.00;1.90;;;13.90;96.70;;;;;;5062568;28;20660;-73
2023/03/17 10:08:54;;;;;;;3.45;2.17;;;14.10;96.70;;;;;;5063234;28;20055;-75
2023/03/17 10:11:34;;;;;;;5.03;2.15;;;14.20;96.70;;;;;;5070071;28;20074;-75
2023/03/17 10:14:13;;;;;;;4.75;2.10;;;14.30;96.70;;;;;;5051897;28;20060;-74
2023/03/17 10:16:50;;;;;;;2.53;1.52;;;14.30;96.70;;;;;;5049549;28;20074;-75
2023/03/17 10:19:26;;;;;;;2.78;1.42;;;14.30;96.70;;;;;;5063761;28;20183;-74
2023/03/17 10:21:58;;;;;;;2.58;1.15;;;14.50;96.70;;;;;;5071483;28;20051;-73
2023/03/17 10:24:29;;;;;;;2.60;1.20;;;14.60;96.70;;;;;;5060024;28;20071;-74
2023/03/17 10:27:03;;;;;;;2.90;1.50;;;14.70;96.70;;;;;;5063987;28;20044;-72
2023/03/17 10:29:32;;;;;;;4.38;1.63;;;14.70;96.70;;;;;;5080272;28;20412;-73
2023/03/17 10:32:01;;;;;;;1.98;1.27;;;14.90;96.70;;;;;;5055930;28;20449;-73
2023/03/17 10:34:32;;;;;;;2.22;1.13;;;14.90;96.70;;;;;;5058366;28;20055;-74
2023/03/17 10:37:06;;;;;;;4.07;1.52;;;14.90;96.70;;;;;;5069592;28;20038;-73
2023/03/17 10:39:43;;;;;;;2.30;1.35;;;15.00;96.70;;;;;;5068264;28;20538;-73
2023/03/17 10:42:21;;;;;;;3.20;1.40;;;15.00;96.70;;;;;;5056195;28;20048;-73
2023/03/17 10:44:54;;;;;;;3.05;1.70;;;15.10;96.70;;;;;;5063614;28;20150;-73
2023/03/17 10:47:28;;;;;;;3.22;1.42;;;15.20;96.70;;;;;;5065248;28;20048;-74
2023/03/17 10:50:02;;;;;;;2.45;1.08;;;15.20;96.70;;;;;;5064892;28;20068;-73
2023/03/17 10:52:37;;;;;;;2.17;1.02;;;15.20;96.70;;;;;;5059838;28;20059;-73
2023/03/17 10:55:09;;;;;;;2.08;1.10;;;15.30;96.70;;;;;;5060797;28;20128;-73
2023/03/17 10:57:48;;;;;;;1.33;0.80;;;15.70;96.70;;;;;;5057353;28;20087;-74
2023/03/17 11:00:19;;;;;;;2.13;1.00;;;15.80;96.70;;;;;;5060562;28;20102;-74
2023/03/17 11:02:53;;;;;;;2.35;1.10;;;16.10;96.70;;;;;;5080983;28;20050;-73
2023/03/17 11:05:24;;;;;;;1.40;0.80;;;16.30;96.70;;;;;;5063411;28;20692;-73
2023/03/17 11:07:57;;;;;;;2.72;0.80;;;16.30;96.00;;;;;;5064711;28;20044;-73
2023/03/17 11:10:27;;;;;;;1.48;0.98;;;16.50;94.40;;;;;;5064297;28;20133;-74
2023/03/17 11:13:00;;;;;;;2.40;1.00;;;16.60;94.30;;;;;;5082981;28;20533;-74
2023/03/17 11:15:32;;;;;;;1.90;1.20;;;16.60;93.40;;;;;;5073607;28;20041;-74
2023/03/17 11:18:03;;;;;;;2.00;1.00;;;16.50;93.20;;;;;;5078074;28;20044;-73
2023/03/17 11:20:45;;;;;;;2.45;1.23;;;16.70;92.30;;;;;;5075838;28;20044;-74
2023/03/17 11:23:25;;;;;;;2.08;1.10;;;16.60;92.70;;;;;;5073793;28;20060;-73
2023/03/17 11:26:03;;;;;;;2.03;1.27;;;16.60;92.70;;;;;;5084121;28;20036;-73
2023/03/17 11:28:39;;;;;;;1.73;0.90;;;16.50;92.30;;;;;;5079862;28;20056;-73
2023/03/17 11:31:15;;;;;;;2.08;0.82;;;16.50;91.50;;;;;;5064267;28;20061;-74
2023/03/17 11:33:50;;;;;;;1.10;0.80;;;16.80;90.60;;;;;;5076343;28;20045;-73
2023/03/17 11:36:36;;;;;;;1.80;0.77;;;17.00;88.50;;;;;;5061070;28;20053;-73
2023/03/17 11:39:11;;;;;;;1.27;0.90;;;16.90;89.10;;;;;;5066136;28;20091;-73
2023/03/17 11:41:55;;;;;;;2.38;0.90;;;17.10;91.00;;;;;;5063899;28;20041;-73
2023/03/17 11:44:47;;;;;;;1.27;0.63;;;17.20;91.60;;;;;;5053039;28;20059;-74
2023/03/17 11:47:37;;;;;;;1.30;0.77;;;17.40;89.00;;;;;;5065551;28;20511;-74
2023/03/17 11:50:19;;;;;;;0.98;0.65;;;17.50;88.60;;;;;;5071911;28;20047;-74
2023/03/17 11:53:00;;;;;;;2.08;1.10;;;17.60;86.80;;;;;;5064688;28;21387;-73
2023/03/17 11:55:41;;;;;;;3.38;0.85;;;17.70;88.70;;;;;;5063137;28;20110;-73
2023/03/17 11:58:18;;;;;;;2.63;0.93;;;17.70;90.00;;;;;;5062579;28;20738;-73
2023/03/17 12:00:51;;;;;;;3.25;1.00;;;17.80;88.60;;;;;;5056988;28;20766;-74
2023/03/17 12:03:28;;;;;;;1.40;1.00;;;17.70;84.80;;;;;;5077199;28;20105;-73
2023/03/17 12:06:04;;;;;;;1.63;0.90;;;17.80;86.10;;;;;;5082707;28;20555;-73
2023/03/17 12:08:41;;;;;;;1.15;0.70;;;18.00;86.70;;;;;;5080332;28;20047;-73
2023/03/17 12:11:11;;;;;;;;;;;18.20;88.20;;;;;;5065504;28;20053;-74
2023/03/17 12:13:45;;;;;;;1.65;0.90;;;18.20;86.90;;;;;;5070630;28;20685;-74
2023/03/17 12:16:20;;;;;;;2.22;1.15;;;18.30;88.00;;;;;;5073099;28;20051;-74
2023/03/17 12:18:58;;;;;;;2.10;1.08;;;18.10;85.80;;;;;;5061771;28;20600;-74
2023/03/17 12:21:35;;;;;;;1.80;0.93;;;18.20;87.80;;;;;;5064638;28;20610;-74
2023/03/17 12:24:10;;;;;;;2.22;1.25;;;18.20;85.90;;;;;;5079628;28;20055;-73
2023/03/17 12:26:46;;;;;;;1.55;1.05;;;18.30;86.60;;;;;;5053530;28;20769;-74
2023/03/17 12:29:18;;;;;;;;;;;18.60;87.50;;;;;;5056006;28;20056;-73
2023/03/17 12:31:56;;;;;;;1.67;0.95;;;18.80;86.70;;;;;;5068255;28;19959;-74
2023/03/17 12:34:32;;;;;;;3.75;1.15;;;18.70;85.90;;;;;;5081042;28;20048;-74
2023/03/17 12:37:02;;;;;;;2.65;1.20;;;18.70;85.90;;;;;;5037924;28;20134;-73
2023/03/17 12:39:33;;;;;;;1.65;1.00;;;18.70;85.20;;;;;;5063891;28;20371;-74
2023/03/17 12:42:14;;;;;;;1.90;1.20;;;18.80;86.10;;;;;;5081479;28;20063;-73
2023/03/17 12:45:13;;;;;;;2.40;1.70;;;18.80;85.70;;;;;;5060734;28;20049;-74
2023/03/17 12:47:57;;;;;;;1.60;1.08;;;18.90;86.90;;;;;;5056391;28;20047;-73
2023/03/17 12:50:53;;;;;;;1.60;0.95;;;19.00;88.20;;;;;;5061673;28;20098;-73
2023/03/17 12:53:28;;;;;;;2.35;1.08;;;19.10;89.00;;;;;;5076910;28;20040;-73
2023/03/17 12:56:00;;;;;;;3.25;1.55;;;19.30;89.70;;;;;;5071225;28;20044;-73
2023/03/17 12:58:34;;;;;;;2.90;1.38;;;19.20;89.40;;;;;;5063493;28;20048;-74
2023/03/17 13:01:08;;;;;;;2.10;1.35;;;19.20;90.00;;;;;;5063676;28;20052;-73
2023/03/17 13:03:54;;;;;;;2.03;1.40;;;19.20;90.00;;;;;;5052515;28;20067;-73
2023/03/17 13:06:23;;;;;;;2.17;1.30;;;19.30;90.70;;;;;;5062075;28;20075;-74
2023/03/17 13:08:52;;;;;;;2.47;1.40;;;19.30;89.80;;;;;;5061113;28;20410;-74
2023/03/17 13:11:45;;;;;;;1.73;1.25;;;19.30;90.70;;;;;;5063473;28;20449;-74
2023/03/17 13:14:24;;;;;;;2.88;1.48;;;19.40;90.70;;;;;;5063093;28;20044;-74